sensor_id;sensor_type;location;lat;lon;timestamp;P1;durP1;ratioP1;P2;durP2;ratioP2
58643;SDS011;44411;49.994;8.660;2023-03-26T00:01:12;0.85;;;0.68;;
58643;SDS011;44411;49.994;8.660;2023-03-26T00:03:39;1.60;;;0.75;;
58643;SDS011;44411;49.994;8.660;2023-03-26T00:06:08;1.40;;;0.82;;
58643;SDS011;44411;49.994;8.660;2023-03-26T00:08:34;0.90;;;0.45;;
58643;SDS011;44411;49.994;8.660;2023-03-26T00:11:00;3.67;;;0.75;;
58643;SDS011;44411;49.994;8.660;2023-03-26T00:13:25;1.02;;;0.73;;
58643;SDS011;44411;49.994;8.660;2023-03-26T00:15:50;1.27;;;0.70;;
58643;SDS011;44411;49.994;8.660;2023-03-26T00:18:16;1.65;;;0.60;;
58643;SDS011;44411;49.994;8.660;2023-03-26T00:20:44;2.30;;;0.90;;
58643;SDS011;44411;49.994;8.660;2023-03-26T00:23:09;2.22;;;0.80;;
58643;SDS011;44411;49.994;8.660;2023-03-26T00:25:36;1.60;;;0.87;;
58643;SDS011;44411;49.994;8.660;2023-03-26T00:28:03;0.52;;;0.50;;
58643;SDS011;44411;49.994;8.660;2023-03-26T00:30:30;1.45;;;0.90;;
58643;SDS011;44411;49.994;8.660;2023-03-26T00:32:57;1.45;;;1.00;;
58643;SDS011;44411;49.994;8.660;2023-03-26T00:35:22;0.93;;;0.60;;
58643;SDS011;44411;49.994;8.660;2023-03-26T00:37:48;1.90;;;0.80;;
58643;SDS011;44411;49.994;8.660;2023-03-26T00:40:15;1.02;;;0.60;;
58643;SDS011;44411;49.994;8.660;2023-03-26T00:42:40;2.33;;;0.90;;
58643;SDS011;44411;49.994;8.660;2023-03-26T00:45:06;1.35;;;0.90;;
58643;SDS011;44411;49.994;8.660;2023-03-26T00:47:31;3.08;;;0.85;;
58643;SDS011;44411;49.994;8.660;2023-03-26T00:49:57;1.88;;;0.80;;
58643;SDS011;44411;49.994;8.660;2023-03-26T00:52:22;3.47;;;1.02;;
58643;SDS011;44411;49.994;8.660;2023-03-26T00:54:49;2.80;;;0.80;;
58643;SDS011;44411;49.994;8.660;2023-03-26T00:57:15;3.03;;;1.15;;
58643;SDS011;44411;49.994;8.660;2023-03-26T00:59:41;0.75;;;0.63;;
58643;SDS011;44411;49.994;8.660;2023-03-26T01:02:06;0.93;;;0.52;;
58643;SDS011;44411;49.994;8.660;2023-03-26T01:04:34;3.95;;;0.63;;
58643;SDS011;44411;49.994;8.660;2023-03-26T01:07:12;2.08;;;0.70;;
58643;SDS011;44411;49.994;8.660;2023-03-26T01:09:39;1.15;;;0.70;;
58643;SDS011;44411;49.994;8.660;2023-03-26T01:12:07;1.40;;;0.70;;
58643;SDS011;44411;49.994;8.660;2023-03-26T01:14:34;2.20;;;0.88;;
58643;SDS011;44411;49.994;8.660;2023-03-26T01:17:00;2.05;;;0.90;;
58643;SDS011;44411;49.994;8.660;2023-03-26T01:19:36;2.58;;;1.20;;
58643;SDS011;44411;49.994;8.660;2023-03-26T01:22:03;1.30;;;0.80;;
58643;SDS011;44411;49.994;8.660;2023-03-26T01:24:29;3.22;;;1.10;;
58643;SDS011;44411;49.994;8.660;2023-03-26T01:27:15;1.65;;;1.00;;
58643;SDS011;44411;49.994;8.660;2023-03-26T01:29:43;0.50;;;0.50;;
58643;SDS011;44411;49.994;8.660;2023-03-26T01:40:02;1.58;;;0.82;;
58643;SDS011;44411;49.994;8.660;2023-03-26T01:42:45;3.85;;;1.33;;
58643;SDS011;44411;49.994;8.660;2023-03-26T01:45:15;1.95;;;0.98;;
58643;SDS011;44411;49.994;8.660;2023-03-26T01:47:43;2.03;;;1.17;;
58643;SDS011;44411;49.994;8.660;2023-03-26T05:02:36;2.80;;;1.00;;
58643;SDS011;44411;49.994;8.660;2023-03-26T05:05:03;2.75;;;1.15;;
58643;SDS011;44411;49.994;8.660;2023-03-26T05:07:29;1.60;;;1.02;;
58643;SDS011;44411;49.994;8.660;2023-03-26T05:09:54;2.60;;;1.30;;
58643;SDS011;44411;49.994;8.660;2023-03-26T05:12:21;2.47;;;1.33;;
58643;SDS011;44411;49.994;8.660;2023-03-26T05:14:46;5.82;;;1.55;;
58643;SDS011;44411;49.994;8.660;2023-03-26T05:17:12;5.37;;;1.63;;
58643;SDS011;44411;49.994;8.660;2023-03-26T05:19:38;6.20;;;1.38;;
58643;SDS011;44411;49.994;8.660;2023-03-26T05:22:05;6.38;;;1.70;;
58643;SDS011;44411;49.994;8.660;2023-03-26T05:24:30;2.72;;;1.30;;
58643;SDS011;44411;49.994;8.660;2023-03-26T05:26:55;4.93;;;1.57;;
58643;SDS011;44411;49.994;8.660;2023-03-26T05:29:21;4.60;;;1.92;;
58643;SDS011;44411;49.994;8.660;2023-03-26T05:31:48;5.63;;;1.40;;
58643;SDS011;44411;49.994;8.660;2023-03-26T05:34:13;3.20;;;1.58;;
58643;SDS011;44411;49.994;8.660;2023-03-26T05:36:39;3.28;;;1.35;;
58643;SDS011;44411;49.994;8.660;2023-03-26T05:39:04;5.85;;;1.00;;
58643;SDS011;44411;49.994;8.660;2023-03-26T05:41:30;4.30;;;1.10;;
58643;SDS011;44411;49.994;8.660;2023-03-26T05:43:55;2.50;;;1.25;;
58643;SDS011;44411;49.994;8.660;2023-03-26T05:46:20;2.83;;;1.10;;
58643;SDS011;44411;49.994;8.660;2023-03-26T05:48:47;3.22;;;1.02;;
58643;SDS011;44411;49.994;8.660;2023-03-26T05:51:12;3.13;;;1.10;;
58643;SDS011;44411;49.994;8.660;2023-03-26T05:53:39;5.00;;;1.60;;
58643;SDS011;44411;49.994;8.660;2023-03-26T05:56:05;5.90;;;1.75;;
58643;SDS011;44411;49.994;8.660;2023-03-26T06:00:59;4.68;;;1.60;;
58643;SDS011;44411;49.994;8.660;2023-03-26T06:03:27;2.75;;;1.02;;
58643;SDS011;44411;49.994;8.660;2023-03-26T06:05:52;1.92;;;0.90;;
58643;SDS011;44411;49.994;8.660;2023-03-26T06:08:17;2.78;;;1.10;;
58643;SDS011;44411;49.994;8.660;2023-03-26T06:10:43;0.98;;;0.70;;
58643;SDS011;44411;49.994;8.660;2023-03-26T06:13:09;2.08;;;0.70;;
58643;SDS011;44411;49.994;8.660;2023-03-26T06:15:34;3.50;;;1.27;;
58643;SDS011;44411;49.994;8.660;2023-03-26T06:17:59;3.30;;;1.25;;
58643;SDS011;44411;49.994;8.660;2023-03-26T06:20:24;1.20;;;0.80;;
58643;SDS011;44411;49.994;8.660;2023-03-26T06:22:49;2.58;;;0.70;;
58643;SDS011;44411;49.994;8.660;2023-03-26T06:25:15;2.17;;;0.80;;
58643;SDS011;44411;49.994;8.660;2023-03-26T06:27:40;3.10;;;0.80;;
58643;SDS011;44411;49.994;8.660;2023-03-26T06:30:05;1.10;;;0.90;;
58643;SDS011;44411;49.994;8.660;2023-03-26T06:32:31;1.80;;;0.95;;
58643;SDS011;44411;49.994;8.660;2023-03-26T06:34:56;1.08;;;0.77;;
58643;SDS011;44411;49.994;8.660;2023-03-26T06:37:21;5.18;;;1.25;;
58643;SDS011;44411;49.994;8.660;2023-03-26T06:39:46;3.50;;;1.00;;
58643;SDS011;44411;49.994;8.660;2023-03-26T06:42:12;0.60;;;0.60;;
58643;SDS011;44411;49.994;8.660;2023-03-26T06:44:37;4.47;;;1.27;;
58643;SDS011;44411;49.994;8.660;2023-03-26T06:47:02;1.53;;;0.90;;
58643;SDS011;44411;49.994;8.660;2023-03-26T06:49:27;2.13;;;0.90;;
58643;SDS011;44411;49.994;8.660;2023-03-26T06:51:52;1.80;;;0.67;;
58643;SDS011;44411;49.994;8.660;2023-03-26T06:54:18;0.60;;;0.60;;
58643;SDS011;44411;49.994;8.660;2023-03-26T06:56:43;1.67;;;0.90;;
58643;SDS011;44411;49.994;8.660;2023-03-26T06:59:08;2.30;;;0.82;;
58643;SDS011;44411;49.994;8.660;2023-03-26T07:01:34;3.40;;;1.00;;
58643;SDS011;44411;49.994;8.660;2023-03-26T07:03:59;1.90;;;0.85;;
58643;SDS011;44411;49.994;8.660;2023-03-26T07:06:24;2.80;;;1.40;;
58643;SDS011;44411;49.994;8.660;2023-03-26T07:08:50;3.47;;;1.65;;
58643;SDS011;44411;49.994;8.660;2023-03-26T07:11:15;2.50;;;0.80;;
58643;SDS011;44411;49.994;8.660;2023-03-26T07:13:43;3.47;;;0.98;;
58643;SDS011;44411;49.994;8.660;2023-03-26T07:16:09;2.67;;;0.75;;
58643;SDS011;44411;49.994;8.660;2023-03-26T07:18:35;3.03;;;1.30;;
58643;SDS011;44411;49.994;8.660;2023-03-26T07:21:00;2.78;;;1.10;;
58643;SDS011;44411;49.994;8.660;2023-03-26T07:23:25;5.20;;;1.02;;
58643;SDS011;44411;49.994;8.660;2023-03-26T07:25:51;3.75;;;1.75;;
58643;SDS011;44411;49.994;8.660;2023-03-26T07:28:19;2.13;;;1.38;;
58643;SDS011;44411;49.994;8.660;2023-03-26T07:38:20;4.43;;;1.52;;
58643;SDS011;44411;49.994;8.660;2023-03-26T07:40:57;2.20;;;1.15;;
58643;SDS011;44411;49.994;8.660;2023-03-26T07:43:38;4.13;;;1.20;;
58643;SDS011;44411;49.994;8.660;2023-03-26T07:46:06;3.40;;;1.60;;
58643;SDS011;44411;49.994;8.660;2023-03-26T07:51:02;3.42;;;1.05;;
58643;SDS011;44411;49.994;8.660;2023-03-26T07:53:27;2.95;;;1.08;;
58643;SDS011;44411;49.994;8.660;2023-03-26T07:55:56;7.22;;;2.03;;
58643;SDS011;44411;49.994;8.660;2023-03-26T08:01:02;6.05;;;1.33;;
58643;SDS011;44411;49.994;8.660;2023-03-26T08:03:34;2.03;;;1.20;;
58643;SDS011;44411;49.994;8.660;2023-03-26T08:22:42;2.63;;;0.90;;
58643;SDS011;44411;49.994;8.660;2023-03-26T08:29:58;4.15;;;1.65;;
58643;SDS011;44411;49.994;8.660;2023-03-26T08:32:26;1.30;;;0.98;;
58643;SDS011;44411;49.994;8.660;2023-03-26T08:34:51;2.40;;;1.25;;
58643;SDS011;44411;49.994;8.660;2023-03-26T08:37:17;7.30;;;2.17;;
58643;SDS011;44411;49.994;8.660;2023-03-26T08:39:42;3.90;;;2.00;;
58643;SDS011;44411;49.994;8.660;2023-03-26T08:47:17;4.15;;;1.85;;
58643;SDS011;44411;49.994;8.660;2023-03-26T09:02:52;3.78;;;1.67;;
58643;SDS011;44411;49.994;8.660;2023-03-26T09:39:38;2.67;;;1.25;;
58643;SDS011;44411;49.994;8.660;2023-03-26T09:52:32;2.85;;;1.13;;
58643;SDS011;44411;49.994;8.660;2023-03-26T09:57:53;4.10;;;1.45;;
58643;SDS011;44411;49.994;8.660;2023-03-26T10:00:43;2.08;;;1.38;;
58643;SDS011;44411;49.994;8.660;2023-03-26T10:03:20;2.05;;;1.05;;
58643;SDS011;44411;49.994;8.660;2023-03-26T10:16:32;4.38;;;1.25;;
58643;SDS011;44411;49.994;8.660;2023-03-26T10:21:31;4.03;;;1.65;;
58643;SDS011;44411;49.994;8.660;2023-03-26T10:26:36;1.55;;;0.90;;
58643;SDS011;44411;49.994;8.660;2023-03-26T10:41:55;0.82;;;0.68;;
58643;SDS011;44411;49.994;8.660;2023-03-26T10:49:40;1.90;;;0.95;;
58643;SDS011;44411;49.994;8.660;2023-03-26T10:52:13;1.88;;;1.05;;
58643;SDS011;44411;49.994;8.660;2023-03-26T10:54:52;3.78;;;1.48;;
58643;SDS011;44411;49.994;8.660;2023-03-26T10:59:51;0.55;;;0.50;;
58643;SDS011;44411;49.994;8.660;2023-03-26T11:02:36;1.60;;;0.98;;
58643;SDS011;44411;49.994;8.660;2023-03-26T11:05:21;1.33;;;0.95;;
58643;SDS011;44411;49.994;8.660;2023-03-26T11:15:24;1.10;;;0.60;;
58643;SDS011;44411;49.994;8.660;2023-03-26T11:32:47;1.15;;;0.68;;
58643;SDS011;44411;49.994;8.660;2023-03-26T11:35:21;1.40;;;0.70;;
58643;SDS011;44411;49.994;8.660;2023-03-26T11:37:53;2.17;;;0.95;;
58643;SDS011;44411;49.994;8.660;2023-03-26T11:40:35;4.07;;;0.98;;
58643;SDS011;44411;49.994;8.660;2023-03-26T11:43:02;1.88;;;1.20;;
58643;SDS011;44411;49.994;8.660;2023-03-26T11:45:32;2.78;;;1.00;;
58643;SDS011;44411;49.994;8.660;2023-03-26T11:48:06;7.68;;;0.95;;
58643;SDS011;44411;49.994;8.660;2023-03-26T11:50:33;1.80;;;0.90;;
58643;SDS011;44411;49.994;8.660;2023-03-26T11:53:13;2.28;;;0.57;;
58643;SDS011;44411;49.994;8.660;2023-03-26T11:56:00;2.03;;;1.05;;
58643;SDS011;44411;49.994;8.660;2023-03-26T11:58:28;1.33;;;0.93;;
58643;SDS011;44411;49.994;8.660;2023-03-26T12:03:20;3.60;;;0.83;;
58643;SDS011;44411;49.994;8.660;2023-03-26T12:05:46;1.10;;;0.70;;
58643;SDS011;44411;49.994;8.660;2023-03-26T12:08:26;3.28;;;0.90;;
58643;SDS011;44411;49.994;8.660;2023-03-26T12:11:03;2.03;;;1.10;;
58643;SDS011;44411;49.994;8.660;2023-03-26T12:13:40;1.25;;;1.08;;
58643;SDS011;44411;49.994;8.660;2023-03-26T12:18:32;1.73;;;0.80;;
58643;SDS011;44411;49.994;8.660;2023-03-26T12:21:02;1.90;;;0.82;;
58643;SDS011;44411;49.994;8.660;2023-03-26T12:23:33;2.50;;;0.80;;
58643;SDS011;44411;49.994;8.660;2023-03-26T12:26:03;1.70;;;0.90;;
58643;SDS011;44411;49.994;8.660;2023-03-26T12:31:00;1.45;;;0.98;;
58643;SDS011;44411;49.994;8.660;2023-03-26T12:33:27;1.98;;;1.10;;
58643;SDS011;44411;49.994;8.660;2023-03-26T12:35:53;3.72;;;1.30;;
58643;SDS011;44411;49.994;8.660;2023-03-26T12:40:48;3.17;;;1.25;;
58643;SDS011;44411;49.994;8.660;2023-03-26T12:46:00;0.95;;;0.70;;
58643;SDS011;44411;49.994;8.660;2023-03-26T12:48:26;1.13;;;0.88;;
58643;SDS011;44411;49.994;8.660;2023-03-26T12:53:32;2.40;;;0.95;;
58643;SDS011;44411;49.994;8.660;2023-03-26T12:58:38;2.10;;;1.17;;
58643;SDS011;44411;49.994;8.660;2023-03-26T13:03:54;2.20;;;1.20;;
58643;SDS011;44411;49.994;8.660;2023-03-26T13:06:25;0.68;;;0.68;;
58643;SDS011;44411;49.994;8.660;2023-03-26T13:16:47;1.58;;;0.40;;
58643;SDS011;44411;49.994;8.660;2023-03-26T13:19:29;0.85;;;0.45;;
58643;SDS011;44411;49.994;8.660;2023-03-26T13:26:58;1.05;;;0.40;;
58643;SDS011;44411;49.994;8.660;2023-03-26T13:29:43;0.32;;;0.32;;
58643;SDS011;44411;49.994;8.660;2023-03-26T13:32:22;0.70;;;0.38;;
58643;SDS011;44411;49.994;8.660;2023-03-26T13:34:55;0.30;;;0.30;;
58643;SDS011;44411;49.994;8.660;2023-03-26T13:37:29;1.23;;;0.50;;
58643;SDS011;44411;49.994;8.660;2023-03-26T13:47:46;1.75;;;0.35;;
58643;SDS011;44411;49.994;8.660;2023-03-26T13:52:46;0.80;;;0.30;;
58643;SDS011;44411;49.994;8.660;2023-03-26T13:55:26;0.35;;;0.30;;
58643;SDS011;44411;49.994;8.660;2023-03-26T13:58:05;0.40;;;0.28;;
58643;SDS011;44411;49.994;8.660;2023-03-26T14:00:43;0.63;;;0.40;;
58643;SDS011;44411;49.994;8.660;2023-03-26T14:03:17;2.03;;;0.80;;
58643;SDS011;44411;49.994;8.660;2023-03-26T14:05:46;0.57;;;0.50;;
58643;SDS011;44411;49.994;8.660;2023-03-26T14:08:26;4.63;;;0.70;;
58643;SDS011;44411;49.994;8.660;2023-03-26T14:10:58;1.35;;;0.60;;
58643;SDS011;44411;49.994;8.660;2023-03-26T14:18:29;1.67;;;0.70;;
58643;SDS011;44411;49.994;8.660;2023-03-26T14:24:02;0.70;;;0.40;;
58643;SDS011;44411;49.994;8.660;2023-03-26T14:31:47;0.77;;;0.40;;
58643;SDS011;44411;49.994;8.660;2023-03-26T14:37:06;0.75;;;0.50;;
58643;SDS011;44411;49.994;8.660;2023-03-26T14:45:04;1.10;;;0.30;;
58643;SDS011;44411;49.994;8.660;2023-03-26T14:47:32;1.80;;;0.85;;
58643;SDS011;44411;49.994;8.660;2023-03-26T14:52:49;0.80;;;0.47;;
58643;SDS011;44411;49.994;8.660;2023-03-26T15:13:14;2.50;;;0.75;;
58643;SDS011;44411;49.994;8.660;2023-03-26T15:15:51;1.05;;;0.57;;
58643;SDS011;44411;49.994;8.660;2023-03-26T15:33:50;0.82;;;0.40;;
58643;SDS011;44411;49.994;8.660;2023-03-26T15:41:40;1.40;;;0.55;;
58643;SDS011;44411;49.994;8.660;2023-03-26T16:04:51;0.20;;;0.20;;
58643;SDS011;44411;49.994;8.660;2023-03-26T16:12:36;0.28;;;0.28;;
58643;SDS011;44411;49.994;8.660;2023-03-26T16:15:13;0.55;;;0.30;;
58643;SDS011;44411;49.994;8.660;2023-03-26T16:20:28;0.40;;;0.40;;
58643;SDS011;44411;49.994;8.660;2023-03-26T16:23:00;0.28;;;0.28;;
58643;SDS011;44411;49.994;8.660;2023-03-26T16:25:31;3.25;;;1.70;;
58643;SDS011;44411;49.994;8.660;2023-03-26T16:28:19;4.25;;;1.75;;
58643;SDS011;44411;49.994;8.660;2023-03-26T16:30:42;1.65;;;0.93;;
58643;SDS011;44411;49.994;8.660;2023-03-26T16:40:34;1.08;;;0.40;;
58643;SDS011;44411;49.994;8.660;2023-03-26T16:48:29;0.30;;;0.30;;
58643;SDS011;44411;49.994;8.660;2023-03-26T16:51:01;5.72;;;0.63;;
58643;SDS011;44411;49.994;8.660;2023-03-26T16:58:48;0.60;;;0.60;;
58643;SDS011;44411;49.994;8.660;2023-03-26T17:16:48;1.20;;;0.50;;
58643;SDS011;44411;49.994;8.660;2023-03-26T17:19:21;1.05;;;0.60;;
58643;SDS011;44411;49.994;8.660;2023-03-26T17:24:35;0.60;;;0.47;;
58643;SDS011;44411;49.994;8.660;2023-03-26T17:35:12;3.03;;;0.50;;
58643;SDS011;44411;49.994;8.660;2023-03-26T17:37:40;0.50;;;0.50;;
58643;SDS011;44411;49.994;8.660;2023-03-26T17:42:59;0.95;;;0.50;;
58643;SDS011;44411;49.994;8.660;2023-03-26T17:45:25;0.98;;;0.50;;
58643;SDS011;44411;49.994;8.660;2023-03-26T17:48:01;1.05;;;0.70;;
58643;SDS011;44411;49.994;8.660;2023-03-26T17:50:30;0.55;;;0.40;;
58643;SDS011;44411;49.994;8.660;2023-03-26T17:52:57;0.55;;;0.55;;
58643;SDS011;44411;49.994;8.660;2023-03-26T17:55:35;1.52;;;0.50;;
58643;SDS011;44411;49.994;8.660;2023-03-26T17:58:02;1.25;;;0.77;;
58643;SDS011;44411;49.994;8.660;2023-03-26T18:02:57;2.85;;;1.13;;
58643;SDS011;44411;49.994;8.660;2023-03-26T18:05:26;1.83;;;0.60;;
58643;SDS011;44411;49.994;8.660;2023-03-26T18:08:13;1.45;;;0.60;;
58643;SDS011;44411;49.994;8.660;2023-03-26T18:15:50;2.30;;;0.77;;
58643;SDS011;44411;49.994;8.660;2023-03-26T18:18:39;1.42;;;0.70;;
58643;SDS011;44411;49.994;8.660;2023-03-26T18:21:06;2.17;;;0.90;;
58643;SDS011;44411;49.994;8.660;2023-03-26T18:25:58;2.97;;;0.90;;
58643;SDS011;44411;49.994;8.660;2023-03-26T18:28:39;2.83;;;1.40;;
58643;SDS011;44411;49.994;8.660;2023-03-26T18:31:11;2.15;;;1.00;;
58643;SDS011;44411;49.994;8.660;2023-03-26T18:33:41;1.58;;;0.82;;
58643;SDS011;44411;49.994;8.660;2023-03-26T18:36:07;0.60;;;0.60;;
58643;SDS011;44411;49.994;8.660;2023-03-26T18:38:35;0.75;;;0.60;;
58643;SDS011;44411;49.994;8.660;2023-03-26T18:41:00;0.93;;;0.60;;
58643;SDS011;44411;49.994;8.660;2023-03-26T18:43:26;1.92;;;0.80;;
58643;SDS011;44411;49.994;8.660;2023-03-26T18:45:51;0.90;;;0.80;;
58643;SDS011;44411;49.994;8.660;2023-03-26T18:48:22;0.90;;;0.80;;
58643;SDS011;44411;49.994;8.660;2023-03-26T18:51:03;0.68;;;0.68;;
58643;SDS011;44411;49.994;8.660;2023-03-26T18:53:30;2.25;;;1.25;;
58643;SDS011;44411;49.994;8.660;2023-03-26T18:55:59;1.27;;;0.65;;
58643;SDS011;44411;49.994;8.660;2023-03-26T18:58:32;2.00;;;0.70;;
58643;SDS011;44411;49.994;8.660;2023-03-26T19:00:59;2.47;;;0.82;;
58643;SDS011;44411;49.994;8.660;2023-03-26T19:03:24;0.50;;;0.50;;
58643;SDS011;44411;49.994;8.660;2023-03-26T19:05:51;0.82;;;0.73;;
58643;SDS011;44411;49.994;8.660;2023-03-26T19:08:16;1.48;;;0.85;;
58643;SDS011;44411;49.994;8.660;2023-03-26T19:10:42;1.30;;;0.70;;
58643;SDS011;44411;49.994;8.660;2023-03-26T19:13:12;0.82;;;0.70;;
58643;SDS011;44411;49.994;8.660;2023-03-26T19:15:37;1.00;;;0.55;;
58643;SDS011;44411;49.994;8.660;2023-03-26T19:18:04;0.93;;;0.67;;
58643;SDS011;44411;49.994;8.660;2023-03-26T19:20:39;1.00;;;0.95;;
58643;SDS011;44411;49.994;8.660;2023-03-26T19:23:05;2.38;;;0.55;;
58643;SDS011;44411;49.994;8.660;2023-03-26T19:25:36;1.35;;;0.57;;
58643;SDS011;44411;49.994;8.660;2023-03-26T19:28:04;0.65;;;0.50;;
58643;SDS011;44411;49.994;8.660;2023-03-26T19:30:30;0.70;;;0.50;;
58643;SDS011;44411;49.994;8.660;2023-03-26T19:33:18;1.67;;;0.73;;
58643;SDS011;44411;49.994;8.660;2023-03-26T19:35:43;0.60;;;0.60;;
58643;SDS011;44411;49.994;8.660;2023-03-26T19:38:17;0.52;;;0.50;;
58643;SDS011;44411;49.994;8.660;2023-03-26T19:40:42;1.92;;;0.88;;
58643;SDS011;44411;49.994;8.660;2023-03-26T19:43:11;1.38;;;0.95;;
58643;SDS011;44411;49.994;8.660;2023-03-26T19:45:37;0.95;;;0.70;;
58643;SDS011;44411;49.994;8.660;2023-03-26T19:48:05;0.82;;;0.60;;
58643;SDS011;44411;49.994;8.660;2023-03-26T19:50:32;1.90;;;1.13;;
58643;SDS011;44411;49.994;8.660;2023-03-26T19:55:29;2.05;;;0.82;;
58643;SDS011;44411;49.994;8.660;2023-03-26T19:57:54;1.23;;;0.63;;
58643;SDS011;44411;49.994;8.660;2023-03-26T20:00:19;1.13;;;0.63;;
58643;SDS011;44411;49.994;8.660;2023-03-26T20:02:45;1.08;;;0.65;;
58643;SDS011;44411;49.994;8.660;2023-03-26T20:05:25;2.28;;;1.15;;
58643;SDS011;44411;49.994;8.660;2023-03-26T20:07:53;1.50;;;0.82;;
58643;SDS011;44411;49.994;8.660;2023-03-26T20:10:19;1.35;;;0.70;;
58643;SDS011;44411;49.994;8.660;2023-03-26T20:12:44;2.17;;;0.93;;
58643;SDS011;44411;49.994;8.660;2023-03-26T20:17:38;3.00;;;1.20;;
58643;SDS011;44411;49.994;8.660;2023-03-26T20:20:07;1.92;;;0.70;;
58643;SDS011;44411;49.994;8.660;2023-03-26T20:22:35;1.08;;;0.70;;
58643;SDS011;44411;49.994;8.660;2023-03-26T20:25:01;1.63;;;0.75;;
58643;SDS011;44411;49.994;8.660;2023-03-26T20:27:27;3.22;;;1.15;;
58643;SDS011;44411;49.994;8.660;2023-03-26T20:29:52;1.95;;;1.00;;
58643;SDS011;44411;49.994;8.660;2023-03-26T20:32:21;1.60;;;0.88;;
58643;SDS011;44411;49.994;8.660;2023-03-26T20:34:47;3.70;;;1.38;;
58643;SDS011;44411;49.994;8.660;2023-03-26T20:37:13;1.63;;;1.10;;
58643;SDS011;44411;49.994;8.660;2023-03-26T20:39:39;1.45;;;0.90;;
58643;SDS011;44411;49.994;8.660;2023-03-26T20:42:05;1.38;;;0.80;;
58643;SDS011;44411;49.994;8.660;2023-03-26T20:44:31;1.48;;;0.57;;
58643;SDS011;44411;49.994;8.660;2023-03-26T20:46:56;2.20;;;0.98;;
58643;SDS011;44411;49.994;8.660;2023-03-26T20:49:22;1.92;;;0.95;;
58643;SDS011;44411;49.994;8.660;2023-03-26T20:51:48;1.70;;;1.20;;
58643;SDS011;44411;49.994;8.660;2023-03-26T20:54:15;3.00;;;1.60;;
58643;SDS011;44411;49.994;8.660;2023-03-26T20:56:41;3.20;;;1.13;;
58643;SDS011;44411;49.994;8.660;2023-03-26T20:59:08;1.65;;;1.27;;
58643;SDS011;44411;49.994;8.660;2023-03-26T21:01:34;3.30;;;1.17;;
58643;SDS011;44411;49.994;8.660;2023-03-26T21:03:59;2.20;;;1.00;;
58643;SDS011;44411;49.994;8.660;2023-03-26T21:06:25;2.03;;;1.08;;
58643;SDS011;44411;49.994;8.660;2023-03-26T21:08:51;2.13;;;1.08;;
58643;SDS011;44411;49.994;8.660;2023-03-26T21:11:18;1.35;;;0.70;;
58643;SDS011;44411;49.994;8.660;2023-03-26T21:13:45;1.63;;;0.90;;
58643;SDS011;44411;49.994;8.660;2023-03-26T21:16:12;0.90;;;0.80;;
58643;SDS011;44411;49.994;8.660;2023-03-26T21:18:38;1.75;;;1.13;;
58643;SDS011;44411;49.994;8.660;2023-03-26T21:21:16;1.10;;;0.70;;
58643;SDS011;44411;49.994;8.660;2023-03-26T21:23:51;1.10;;;0.73;;
58643;SDS011;44411;49.994;8.660;2023-03-26T21:26:31;2.33;;;0.88;;
58643;SDS011;44411;49.994;8.660;2023-03-26T21:28:58;2.17;;;0.90;;
58643;SDS011;44411;49.994;8.660;2023-03-26T21:31:24;0.68;;;0.60;;
58643;SDS011;44411;49.994;8.660;2023-03-26T21:33:52;0.65;;;0.63;;
58643;SDS011;44411;49.994;8.660;2023-03-26T21:36:19;1.92;;;0.90;;
58643;SDS011;44411;49.994;8.660;2023-03-26T21:38:44;0.88;;;0.55;;
58643;SDS011;44411;49.994;8.660;2023-03-26T21:41:15;0.50;;;0.50;;
58643;SDS011;44411;49.994;8.660;2023-03-26T21:43:44;1.00;;;0.60;;
58643;SDS011;44411;49.994;8.660;2023-03-26T21:46:10;1.10;;;0.75;;
58643;SDS011;44411;49.994;8.660;2023-03-26T21:48:35;0.90;;;0.60;;
58643;SDS011;44411;49.994;8.660;2023-03-26T21:51:02;2.22;;;1.08;;
58643;SDS011;44411;49.994;8.660;2023-03-26T21:53:27;1.75;;;0.90;;
58643;SDS011;44411;49.994;8.660;2023-03-26T21:58:46;0.90;;;0.60;;
58643;SDS011;44411;49.994;8.660;2023-03-26T22:06:28;0.95;;;0.70;;
58643;SDS011;44411;49.994;8.660;2023-03-26T22:08:56;1.35;;;0.90;;
58643;SDS011;44411;49.994;8.660;2023-03-26T22:11:21;1.48;;;0.90;;
58643;SDS011;44411;49.994;8.660;2023-03-26T22:13:47;2.28;;;1.23;;
58643;SDS011;44411;49.994;8.660;2023-03-26T22:16:12;1.13;;;0.77;;
58643;SDS011;44411;49.994;8.660;2023-03-26T22:18:37;1.73;;;0.80;;
58643;SDS011;44411;49.994;8.660;2023-03-26T22:21:02;1.17;;;0.83;;
58643;SDS011;44411;49.994;8.660;2023-03-26T22:23:28;0.63;;;0.63;;
58643;SDS011;44411;49.994;8.660;2023-03-26T22:26:00;1.52;;;0.98;;
58643;SDS011;44411;49.994;8.660;2023-03-26T22:28:25;2.40;;;0.90;;
58643;SDS011;44411;49.994;8.660;2023-03-26T22:30:51;1.70;;;0.93;;
58643;SDS011;44411;49.994;8.660;2023-03-26T22:33:16;1.40;;;0.93;;
58643;SDS011;44411;49.994;8.660;2023-03-26T22:35:42;2.40;;;1.08;;
58643;SDS011;44411;49.994;8.660;2023-03-26T22:38:07;2.03;;;1.20;;
58643;SDS011;44411;49.994;8.660;2023-03-26T22:40:33;2.65;;;1.20;;
58643;SDS011;44411;49.994;8.660;2023-03-26T22:42:58;2.90;;;1.60;;
58643;SDS011;44411;49.994;8.660;2023-03-26T22:45:24;2.40;;;1.00;;
58643;SDS011;44411;49.994;8.660;2023-03-26T22:47:50;2.63;;;1.33;;
58643;SDS011;44411;49.994;8.660;2023-03-26T22:50:16;1.65;;;1.13;;
58643;SDS011;44411;49.994;8.660;2023-03-26T22:52:41;2.47;;;1.23;;
58643;SDS011;44411;49.994;8.660;2023-03-26T22:55:07;1.43;;;1.00;;
58643;SDS011;44411;49.994;8.660;2023-03-26T22:57:32;2.47;;;1.27;;
58643;SDS011;44411;49.994;8.660;2023-03-26T22:59:57;3.85;;;2.05;;
58643;SDS011;44411;49.994;8.660;2023-03-26T23:02:33;2.90;;;1.67;;
58643;SDS011;44411;49.994;8.660;2023-03-26T23:04:58;2.00;;;1.20;;
58643;SDS011;44411;49.994;8.660;2023-03-26T23:07:23;2.87;;;1.57;;
58643;SDS011;44411;49.994;8.660;2023-03-26T23:09:49;3.20;;;1.27;;
58643;SDS011;44411;49.994;8.660;2023-03-26T23:12:14;3.60;;;1.63;;
58643;SDS011;44411;49.994;8.660;2023-03-26T23:14:39;2.88;;;1.30;;
58643;SDS011;44411;49.994;8.660;2023-03-26T23:17:05;4.35;;;1.70;;
58643;SDS011;44411;49.994;8.660;2023-03-26T23:19:30;2.60;;;1.35;;
58643;SDS011;44411;49.994;8.660;2023-03-26T23:21:57;3.38;;;1.73;;
58643;SDS011;44411;49.994;8.660;2023-03-26T23:24:23;3.17;;;1.40;;
58643;SDS011;44411;49.994;8.660;2023-03-26T23:26:50;2.05;;;1.38;;
58643;SDS011;44411;49.994;8.660;2023-03-26T23:29:15;2.37;;;1.30;;
58643;SDS011;44411;49.994;8.660;2023-03-26T23:31:40;5.70;;;1.63;;
58643;SDS011;44411;49.994;8.660;2023-03-26T23:34:06;3.13;;;1.60;;
58643;SDS011;44411;49.994;8.660;2023-03-26T23:36:32;1.80;;;1.30;;
58643;SDS011;44411;49.994;8.660;2023-03-26T23:38:57;3.13;;;1.57;;
58643;SDS011;44411;49.994;8.660;2023-03-26T23:41:23;2.28;;;1.20;;
58643;SDS011;44411;49.994;8.660;2023-03-26T23:43:49;4.25;;;1.25;;
58643;SDS011;44411;49.994;8.660;2023-03-26T23:46:15;2.53;;;1.50;;
58643;SDS011;44411;49.994;8.660;2023-03-26T23:48:41;2.75;;;1.20;;
58643;SDS011;44411;49.994;8.660;2023-03-26T23:51:08;1.85;;;1.20;;
58643;SDS011;44411;49.994;8.660;2023-03-26T23:53:33;3.67;;;1.65;;
58643;SDS011;44411;49.994;8.660;2023-03-26T23:55:59;2.53;;;1.45;;
58643;SDS011;44411;49.994;8.660;2023-03-26T23:58:25;3.03;;;1.50;;
